createdAt,value
2023-03-28T00:00:16.086Z,1.77
2023-03-28T00:00:47.976Z,1.77
2023-03-28T00:01:19.947Z,1.77
2023-03-28T00:01:51.986Z,1.77
2023-03-28T00:02:24.090Z,1.77
2023-03-28T00:02:55.949Z,1.77
2023-03-28T00:03:27.926Z,1.77
2023-03-28T00:04:00.046Z,1.77
2023-03-28T00:04:31.781Z,1.77
2023-03-28T00:05:03.872Z,1.72
2023-03-28T00:05:35.808Z,1.72
2023-03-28T00:06:07.938Z,1.72
2023-03-28T00:06:39.683Z,1.72
2023-03-28T00:07:11.877Z,1.72
2023-03-28T00:07:43.800Z,1.72
2023-03-28T00:08:15.707Z,1.72
2023-03-28T00:08:47.759Z,1.72
2023-03-28T00:09:19.578Z,1.72
2023-03-28T00:09:51.640Z,1.61
2023-03-28T00:10:23.650Z,1.61
2023-03-28T00:10:55.482Z,1.61
2023-03-28T00:11:27.482Z,1.61
2023-03-28T00:11:59.492Z,1.61
2023-03-28T00:12:31.518Z,1.61
2023-03-28T00:13:03.456Z,1.61
2023-03-28T00:13:35.573Z,1.61
2023-03-28T00:14:07.420Z,1.72
2023-03-28T00:14:39.554Z,1.72
2023-03-28T00:15:11.492Z,1.72
2023-03-28T00:15:43.410Z,1.72
2023-03-28T00:16:15.415Z,1.72
2023-03-28T00:16:47.384Z,1.72
2023-03-28T00:17:19.192Z,1.72
2023-03-28T00:17:51.318Z,1.72
2023-03-28T00:18:23.211Z,1.72
2023-03-28T00:18:55.241Z,1.72
2023-03-28T00:19:27.171Z,1.72
2023-03-28T00:19:59.118Z,1.72
2023-03-28T00:20:31.188Z,1.72
2023-03-28T00:21:03.148Z,1.72
2023-03-28T00:21:34.956Z,1.72
2023-03-28T00:22:07.006Z,1.72
2023-03-28T00:22:39.105Z,1.72
2023-03-28T00:23:11.263Z,1.72
2023-03-28T00:23:42.877Z,1.72
2023-03-28T00:24:14.940Z,1.72
2023-03-28T00:24:46.958Z,1.72
2023-03-28T00:25:18.982Z,1.72
2023-03-28T00:25:50.899Z,1.72
2023-03-28T00:26:22.828Z,1.72
2023-03-28T00:26:54.990Z,1.72
2023-03-28T00:27:26.865Z,1.72
2023-03-28T00:27:58.697Z,1.72
2023-03-28T00:28:30.887Z,1.72
2023-03-28T00:29:02.990Z,1.72
2023-03-28T00:29:35.085Z,1.72
2023-03-28T00:30:06.929Z,1.72
2023-03-28T00:30:38.726Z,1.72
2023-03-28T00:31:11.029Z,1.72
2023-03-28T00:31:42.824Z,1.72
2023-03-28T00:32:14.535Z,1.72
2023-03-28T00:32:46.585Z,1.72
2023-03-28T00:33:18.589Z,1.72
2023-03-28T00:33:50.708Z,1.72
2023-03-28T00:34:22.441Z,1.72
2023-03-28T00:34:54.488Z,1.72
2023-03-28T00:35:26.497Z,1.72
2023-03-28T00:35:58.777Z,1.72
2023-03-28T00:36:30.632Z,1.72
2023-03-28T00:37:02.388Z,1.72
2023-03-28T00:37:34.711Z,1.77
2023-03-28T00:38:06.445Z,1.77
2023-03-28T00:38:38.502Z,1.77
2023-03-28T00:39:10.398Z,1.77
2023-03-28T00:39:42.280Z,1.77
2023-03-28T00:40:14.381Z,1.77
2023-03-28T00:40:46.341Z,1.77
2023-03-28T00:41:18.174Z,1.77
2023-03-28T00:41:50.226Z,1.77
2023-03-28T00:42:22.219Z,1.77
2023-03-28T00:42:54.274Z,1.77
2023-03-28T00:43:26.106Z,1.77
2023-03-28T00:43:58.125Z,1.77
2023-03-28T00:44:30.188Z,1.77
2023-03-28T00:45:02.384Z,1.77
2023-03-28T00:45:34.057Z,1.77
2023-03-28T00:46:09.343Z,1.77
2023-03-28T00:46:38.117Z,1.77
2023-03-28T00:47:10.584Z,1.77
2023-03-28T00:47:41.986Z,1.88
2023-03-28T00:48:15.149Z,1.88
2023-03-28T00:48:45.934Z,1.88
2023-03-28T00:49:18.028Z,1.88
2023-03-28T00:49:49.827Z,1.88
2023-03-28T00:50:21.824Z,1.88
2023-03-28T00:50:53.899Z,1.88
2023-03-28T00:51:25.874Z,1.88
2023-03-28T00:51:57.788Z,1.88
2023-03-28T00:52:29.736Z,1.88
2023-03-28T00:53:01.869Z,1.77
2023-03-28T00:53:34.198Z,1.77
2023-03-28T00:54:05.612Z,1.77
2023-03-28T00:54:37.677Z,1.77
2023-03-28T00:55:09.704Z,1.77
2023-03-28T00:55:41.713Z,1.77
2023-03-28T00:56:13.671Z,1.77
2023-03-28T00:56:45.585Z,1.77
2023-03-28T00:57:17.618Z,1.77
2023-03-28T00:57:49.616Z,1.77
2023-03-28T00:58:21.566Z,1.77
2023-03-28T00:58:53.485Z,1.77
2023-03-28T00:59:25.511Z,1.77
2023-03-28T00:59:57.608Z,1.77
2023-03-28T01:00:29.445Z,1.77
2023-03-28T01:01:01.417Z,1.72
2023-03-28T01:01:33.441Z,1.72
2023-03-28T01:02:05.465Z,1.72
2023-03-28T01:02:37.381Z,1.72
2023-03-28T01:03:09.400Z,1.72
2023-03-28T01:03:41.541Z,1.72
2023-03-28T01:04:13.389Z,1.72
2023-03-28T01:04:45.174Z,1.72
2023-03-28T01:05:17.179Z,1.72
2023-03-28T01:05:49.233Z,1.72
2023-03-28T01:06:21.274Z,1.72
2023-03-28T01:06:53.249Z,1.72
2023-03-28T01:07:25.109Z,1.72
2023-03-28T01:07:57.196Z,1.72
2023-03-28T01:08:29.193Z,1.72
2023-03-28T01:09:01.452Z,1.72
2023-03-28T01:09:33.028Z,1.72
2023-03-28T01:10:05.072Z,1.72
2023-03-28T01:10:37.077Z,1.72
2023-03-28T01:11:09.124Z,1.77
2023-03-28T01:11:41.006Z,1.77
2023-03-28T01:12:12.945Z,1.77
2023-03-28T01:12:45.006Z,1.77
2023-03-28T01:13:16.988Z,1.77
2023-03-28T01:13:48.869Z,1.77
2023-03-28T01:14:21.008Z,1.77
2023-03-28T01:14:52.890Z,1.77
2023-03-28T01:15:25.002Z,1.77
2023-03-28T01:15:56.754Z,1.77
2023-03-28T01:16:28.790Z,1.77
2023-03-28T01:17:00.895Z,1.77
2023-03-28T01:17:32.873Z,1.77
2023-03-28T01:18:04.717Z,1.77
2023-03-28T01:18:36.678Z,1.77
2023-03-28T01:19:09.276Z,1.77
2023-03-28T01:19:40.818Z,1.88
2023-03-28T01:20:12.626Z,1.77
2023-03-28T01:20:44.593Z,1.77
2023-03-28T01:21:16.599Z,1.77
2023-03-28T01:21:48.715Z,1.77
2023-03-28T01:22:20.520Z,1.77
2023-03-28T01:22:57.196Z,1.77
2023-03-28T01:23:24.533Z,1.77
2023-03-28T01:24:11.786Z,1.77
2023-03-28T01:24:28.443Z,1.77
2023-03-28T01:25:00.606Z,1.77
2023-03-28T01:25:32.964Z,1.77
2023-03-28T01:26:04.779Z,1.77
2023-03-28T01:26:36.318Z,1.77
2023-03-28T01:27:08.325Z,1.77
2023-03-28T01:27:40.448Z,1.77
2023-03-28T01:28:12.331Z,1.77
2023-03-28T01:28:44.231Z,1.77
2023-03-28T01:29:16.209Z,1.77
2023-03-28T01:29:48.256Z,1.77
2023-03-28T01:30:20.447Z,1.77
2023-03-28T01:30:52.089Z,1.77
2023-03-28T01:31:24.132Z,1.77
2023-03-28T01:31:56.262Z,1.77
2023-03-28T01:32:28.197Z,1.72
2023-03-28T01:33:00.026Z,1.72
2023-03-28T01:33:32.042Z,1.72
2023-03-28T01:34:04.052Z,1.72
2023-03-28T01:34:36.136Z,1.72
2023-03-28T01:35:07.974Z,1.72
2023-03-28T01:35:39.999Z,1.72
2023-03-28T01:36:11.932Z,1.72
2023-03-28T01:36:43.992Z,1.72
2023-03-28T01:37:15.985Z,1.72
2023-03-28T01:37:47.844Z,1.72
2023-03-28T01:38:19.846Z,1.72
2023-03-28T01:38:51.879Z,1.72
2023-03-28T01:39:23.797Z,1.72
2023-03-28T01:39:55.748Z,1.72
2023-03-28T01:40:27.797Z,1.72
2023-03-28T01:40:59.805Z,1.72
2023-03-28T01:41:31.606Z,1.72
2023-03-28T01:42:03.901Z,1.72
2023-03-28T01:42:35.687Z,1.72
2023-03-28T01:43:07.778Z,1.72
2023-03-28T01:43:39.539Z,1.72
2023-03-28T01:44:11.560Z,1.72
2023-03-28T01:44:43.572Z,1.72
2023-03-28T01:45:15.720Z,1.72
2023-03-28T01:45:47.462Z,1.72
2023-03-28T01:46:19.525Z,1.72
2023-03-28T01:46:51.496Z,1.72
2023-03-28T01:47:23.550Z,1.72
2023-03-28T01:47:55.540Z,1.72
2023-03-28T01:48:27.356Z,1.72
2023-03-28T01:48:59.397Z,1.72
2023-03-28T01:49:31.463Z,1.72
2023-03-28T01:50:03.288Z,1.72
2023-03-28T01:50:35.309Z,1.72
2023-03-28T01:51:07.331Z,1.72
2023-03-28T01:51:39.399Z,1.72
2023-03-28T01:52:11.244Z,1.72
2023-03-28T01:52:43.172Z,1.72
2023-03-28T01:53:15.225Z,1.72
2023-03-28T01:53:47.225Z,1.72
2023-03-28T01:54:19.209Z,1.61
2023-03-28T01:54:51.178Z,1.61
2023-03-28T01:55:23.161Z,1.61
2023-03-28T01:55:55.543Z,1.61
2023-03-28T01:56:27.187Z,1.61
2023-03-28T01:56:59.195Z,1.61
2023-03-28T01:57:31.691Z,1.61
2023-03-28T01:58:03.042Z,1.61
2023-03-28T01:58:35.129Z,1.61
2023-03-28T01:59:06.934Z,1.72
2023-03-28T01:59:38.972Z,1.72
2023-03-28T02:00:11.609Z,1.72
2023-03-28T02:00:42.997Z,1.77
2023-03-28T02:01:14.855Z,1.77
2023-03-28T02:01:46.944Z,1.77
2023-03-28T02:02:18.953Z,1.77
2023-03-28T02:02:51.209Z,1.77
2023-03-28T02:03:22.798Z,1.77
2023-03-28T02:03:54.747Z,1.77
2023-03-28T02:04:26.771Z,1.77
2023-03-28T02:04:58.836Z,1.88
2023-03-28T02:05:31.137Z,1.88
2023-03-28T02:06:03.049Z,1.88
2023-03-28T02:06:34.691Z,1.88
2023-03-28T02:07:06.744Z,1.88
2023-03-28T02:07:38.559Z,1.88
2023-03-28T02:08:10.663Z,1.88
2023-03-28T02:08:42.571Z,1.88
2023-03-28T02:09:14.614Z,1.88
2023-03-28T02:09:46.446Z,1.88
2023-03-28T02:10:18.500Z,1.88
2023-03-28T02:10:50.574Z,1.88
2023-03-28T02:11:22.527Z,1.88
2023-03-28T02:11:54.350Z,1.88
2023-03-28T02:12:26.375Z,1.88
2023-03-28T02:12:58.441Z,1.88
2023-03-28T02:13:30.560Z,1.88
2023-03-28T02:14:02.270Z,1.88
2023-03-28T02:14:34.674Z,1.88
2023-03-28T02:15:06.563Z,1.88
2023-03-28T02:15:38.347Z,1.88
2023-03-28T02:16:10.489Z,1.88
2023-03-28T02:16:42.257Z,1.88
2023-03-28T02:17:14.172Z,1.88
2023-03-28T02:17:46.392Z,1.88
2023-03-28T02:18:18.233Z,1.88
2023-03-28T02:18:50.050Z,1.88
2023-03-28T02:19:22.074Z,1.88
2023-03-28T02:19:54.154Z,1.88
2023-03-28T02:20:26.138Z,2.00
2023-03-28T02:20:57.951Z,2.00
2023-03-28T02:21:29.991Z,2.00
2023-03-28T02:22:02.025Z,2.00
2023-03-28T02:22:34.127Z,2.00
2023-03-28T02:23:05.901Z,2.00
2023-03-28T02:23:37.925Z,2.00
2023-03-28T02:24:09.947Z,2.00
2023-03-28T02:24:41.994Z,2.00
2023-03-28T02:25:14.188Z,2.00
2023-03-28T02:25:46.132Z,2.00
2023-03-28T02:26:17.862Z,2.00
2023-03-28T02:26:49.895Z,2.00
2023-03-28T02:27:21.689Z,2.00
2023-03-28T02:27:53.780Z,2.00
2023-03-28T02:28:25.757Z,1.88
2023-03-28T02:28:57.779Z,1.88
2023-03-28T02:29:29.672Z,1.88
2023-03-28T02:30:01.962Z,1.88
2023-03-28T02:30:33.748Z,1.88
2023-03-28T02:31:05.707Z,1.88
2023-03-28T02:31:37.551Z,1.88
2023-03-28T02:32:09.775Z,1.88
2023-03-28T02:32:41.580Z,1.88
2023-03-28T02:33:13.682Z,1.77
2023-03-28T02:33:45.489Z,1.77
2023-03-28T02:34:17.460Z,1.77
2023-03-28T02:34:49.560Z,1.77
2023-03-28T02:35:21.577Z,1.77
2023-03-28T02:35:53.369Z,1.77
2023-03-28T02:36:25.355Z,1.77
2023-03-28T02:36:57.470Z,1.77
2023-03-28T02:37:29.624Z,1.77
2023-03-28T02:38:01.615Z,1.77
2023-03-28T02:38:33.299Z,1.77
2023-03-28T02:39:05.306Z,1.77
2023-03-28T02:39:37.326Z,1.72
2023-03-28T02:40:09.370Z,1.72
2023-03-28T02:40:41.222Z,1.72
2023-03-28T02:41:13.197Z,1.72
2023-03-28T02:41:45.228Z,1.72
2023-03-28T02:42:17.301Z,1.72
2023-03-28T02:42:49.069Z,1.72
2023-03-28T02:43:21.173Z,1.72
2023-03-28T02:43:53.123Z,1.72
2023-03-28T02:44:27.068Z,1.61
2023-03-28T02:44:56.997Z,1.61
2023-03-28T02:45:29.126Z,1.61
2023-03-28T02:46:01.319Z,1.61
2023-03-28T02:46:33.361Z,1.61
2023-03-28T02:47:04.961Z,1.61
2023-03-28T02:47:36.968Z,1.61
2023-03-28T02:48:08.989Z,1.61
2023-03-28T02:48:41.136Z,1.61
2023-03-28T02:49:12.800Z,1.61
2023-03-28T02:49:50.442Z,1.61
2023-03-28T02:50:17.015Z,1.61
2023-03-28T02:50:48.919Z,1.61
2023-03-28T02:51:20.795Z,1.61
2023-03-28T02:51:52.757Z,1.50
2023-03-28T02:52:24.788Z,1.50
2023-03-28T02:52:57.284Z,1.50
2023-03-28T02:53:28.610Z,1.50
2023-03-28T02:54:00.798Z,1.50
2023-03-28T02:54:32.810Z,1.50
2023-03-28T02:55:04.746Z,1.50
2023-03-28T02:55:36.828Z,1.50
2023-03-28T02:56:08.559Z,1.50
2023-03-28T02:56:40.826Z,1.50
2023-03-28T02:57:12.676Z,1.50
2023-03-28T02:57:44.448Z,1.50
2023-03-28T02:58:16.433Z,1.50
2023-03-28T02:58:48.470Z,1.50
2023-03-28T02:59:20.651Z,1.50
2023-03-28T02:59:52.396Z,1.50
2023-03-28T03:00:24.546Z,1.50
2023-03-28T03:00:56.848Z,1.50
2023-03-28T03:01:28.450Z,1.50
2023-03-28T03:02:00.388Z,1.50
2023-03-28T03:02:32.329Z,1.50
2023-03-28T03:03:04.368Z,1.50
2023-03-28T03:03:36.346Z,1.50
2023-03-28T03:04:08.216Z,1.50
2023-03-28T03:04:40.230Z,1.50
2023-03-28T03:05:12.238Z,1.50
2023-03-28T03:05:44.289Z,1.50
2023-03-28T03:06:16.155Z,1.50
2023-03-28T03:06:48.123Z,1.50
2023-03-28T03:07:20.174Z,1.50
2023-03-28T03:07:52.140Z,1.38
2023-03-28T03:08:24.471Z,1.38
2023-03-28T03:08:56.015Z,1.38
2023-03-28T03:09:28.154Z,1.38
2023-03-28T03:10:00.069Z,1.38
2023-03-28T03:10:32.135Z,1.50
2023-03-28T03:11:04.242Z,1.50
2023-03-28T03:11:35.922Z,1.50
2023-03-28T03:12:08.035Z,1.50
2023-03-28T03:12:39.965Z,1.50
2023-03-28T03:13:11.916Z,1.50
2023-03-28T03:13:43.904Z,1.50
2023-03-28T03:14:15.910Z,1.50
2023-03-28T03:14:47.921Z,1.50
2023-03-28T03:15:19.813Z,1.50
2023-03-28T03:15:51.810Z,1.50
2023-03-28T03:16:23.901Z,1.50
2023-03-28T03:16:55.804Z,1.50
2023-03-28T03:17:27.621Z,1.50
2023-03-28T03:17:59.658Z,1.61
2023-03-28T03:18:31.686Z,1.61
2023-03-28T03:19:03.762Z,1.61
2023-03-28T03:19:35.537Z,1.61
2023-03-28T03:20:07.979Z,1.61
2023-03-28T03:20:39.604Z,1.61
2023-03-28T03:21:11.613Z,1.72
2023-03-28T03:21:43.446Z,1.72
2023-03-28T03:22:21.034Z,1.72
2023-03-28T03:22:47.491Z,1.72
2023-03-28T03:23:19.609Z,1.72
2023-03-28T03:23:51.445Z,1.77
2023-03-28T03:24:23.417Z,1.77
2023-03-28T03:24:55.398Z,1.77
2023-03-28T03:25:28.050Z,1.77
2023-03-28T03:25:59.545Z,1.77
2023-03-28T03:26:31.427Z,1.77
2023-03-28T03:27:03.334Z,1.77
2023-03-28T03:27:35.327Z,1.77
2023-03-28T03:28:07.213Z,1.77
2023-03-28T03:28:39.642Z,1.77
2023-03-28T03:29:11.268Z,1.77
2023-03-28T03:29:43.225Z,1.77
2023-03-28T03:30:15.161Z,1.77
2023-03-28T03:30:47.105Z,1.77
2023-03-28T03:31:19.177Z,1.77
2023-03-28T03:31:51.253Z,1.77
2023-03-28T03:32:23.033Z,1.77
2023-03-28T03:32:55.083Z,1.77
2023-03-28T03:33:27.012Z,1.77
2023-03-28T03:33:59.081Z,1.77
2023-03-28T03:34:30.999Z,1.72
2023-03-28T03:35:02.974Z,1.72
2023-03-28T03:35:35.579Z,1.72
2023-03-28T03:36:06.981Z,1.72
2023-03-28T03:36:38.786Z,1.72
2023-03-28T03:37:11.041Z,1.72
2023-03-28T03:37:42.830Z,1.72
2023-03-28T03:38:14.855Z,1.72
2023-03-28T03:38:46.884Z,1.72
2023-03-28T03:39:18.722Z,1.72
2023-03-28T03:39:50.880Z,1.72
2023-03-28T03:40:22.794Z,1.72
2023-03-28T03:40:54.623Z,1.72
2023-03-28T03:41:26.659Z,1.72
2023-03-28T03:41:58.655Z,1.72
2023-03-28T03:42:30.883Z,1.72
2023-03-28T03:43:02.736Z,1.72
2023-03-28T03:43:34.540Z,1.72
2023-03-28T03:44:06.578Z,1.72
2023-03-28T03:44:38.588Z,1.72
2023-03-28T03:45:11.026Z,1.72
2023-03-28T03:45:42.444Z,1.72
2023-03-28T03:46:14.521Z,1.72
2023-03-28T03:46:46.539Z,1.72
2023-03-28T03:47:18.540Z,1.72
2023-03-28T03:47:50.509Z,1.72
2023-03-28T03:48:22.358Z,1.72
2023-03-28T03:48:54.383Z,1.72
2023-03-28T03:49:26.481Z,1.72
2023-03-28T03:49:58.247Z,1.72
2023-03-28T03:50:30.420Z,1.61
2023-03-28T03:51:02.334Z,1.61
2023-03-28T03:51:34.398Z,1.61
2023-03-28T03:52:06.185Z,1.61
2023-03-28T03:52:38.198Z,1.61
2023-03-28T03:53:10.274Z,1.61
2023-03-28T03:53:42.249Z,1.61
2023-03-28T03:54:14.118Z,1.61
2023-03-28T03:54:46.101Z,1.61
2023-03-28T03:55:18.251Z,1.61
2023-03-28T03:55:50.231Z,1.61
2023-03-28T03:56:21.981Z,1.61
2023-03-28T03:56:54.060Z,1.61
2023-03-28T03:57:26.039Z,1.61
2023-03-28T03:57:58.068Z,1.61
2023-03-28T03:58:29.933Z,1.61
2023-03-28T03:59:01.929Z,1.50
2023-03-28T03:59:34.527Z,1.50
2023-03-28T04:00:06.355Z,1.50
2023-03-28T04:00:37.816Z,1.50
2023-03-28T04:01:09.845Z,1.50
2023-03-28T04:01:41.888Z,1.50
2023-03-28T04:02:13.995Z,1.50
2023-03-28T04:02:45.716Z,1.50
2023-03-28T04:03:24.143Z,1.50
2023-03-28T04:03:49.783Z,1.50
2023-03-28T04:04:21.812Z,1.50
2023-03-28T04:04:53.658Z,1.50
2023-03-28T04:05:25.686Z,1.50
2023-03-28T04:05:58.066Z,1.50
2023-03-28T04:06:29.747Z,1.50
2023-03-28T04:07:01.539Z,1.50
2023-03-28T04:07:33.534Z,1.50
2023-03-28T04:08:05.546Z,1.50
2023-03-28T04:08:37.625Z,1.50
2023-03-28T04:09:09.445Z,1.50
2023-03-28T04:09:41.482Z,1.50
2023-03-28T04:10:13.545Z,1.50
2023-03-28T04:10:47.211Z,1.50
2023-03-28T04:11:17.313Z,1.50
2023-03-28T04:11:49.367Z,1.50
2023-03-28T04:12:21.569Z,1.50
2023-03-28T04:12:53.387Z,1.50
2023-03-28T04:13:25.519Z,1.50
2023-03-28T04:13:57.260Z,1.50
2023-03-28T04:14:29.338Z,1.50
2023-03-28T04:15:01.627Z,1.50
2023-03-28T04:15:33.449Z,1.50
2023-03-28T04:16:05.194Z,1.50
2023-03-28T04:16:41.139Z,1.50
2023-03-28T04:17:09.207Z,1.50
2023-03-28T04:17:41.690Z,1.61
2023-03-28T04:18:13.126Z,1.61
2023-03-28T04:18:45.077Z,1.61
2023-03-28T04:19:17.158Z,1.61
2023-03-28T04:19:49.157Z,1.61
2023-03-28T04:20:21.116Z,1.61
2023-03-28T04:20:53.032Z,1.61
2023-03-28T04:21:25.049Z,1.61
2023-03-28T04:21:57.687Z,1.61
2023-03-28T04:22:28.946Z,1.61
2023-03-28T04:23:01.138Z,1.61
2023-03-28T04:23:33.940Z,1.72
2023-03-28T04:24:04.964Z,1.72
2023-03-28T04:24:36.833Z,1.72
2023-03-28T04:25:08.836Z,1.72
2023-03-28T04:25:40.919Z,1.72
2023-03-28T04:26:12.874Z,1.72
2023-03-28T04:26:44.695Z,1.72
2023-03-28T04:27:16.707Z,1.72
2023-03-28T04:27:48.771Z,1.72
2023-03-28T04:28:21.063Z,1.72
2023-03-28T04:28:52.595Z,1.72
2023-03-28T04:29:24.627Z,1.72
2023-03-28T04:29:56.646Z,1.72
2023-03-28T04:30:28.931Z,1.72
2023-03-28T04:31:00.678Z,1.72
2023-03-28T04:31:32.572Z,1.72
2023-03-28T04:32:04.551Z,1.72
2023-03-28T04:32:36.611Z,1.61
2023-03-28T04:33:08.474Z,1.61
2023-03-28T04:33:40.583Z,1.61
2023-03-28T04:34:12.465Z,1.61
2023-03-28T04:34:44.507Z,1.61
2023-03-28T04:35:16.347Z,1.61
2023-03-28T04:35:48.418Z,1.50
2023-03-28T04:36:20.519Z,1.50
2023-03-28T04:36:52.404Z,1.50
2023-03-28T04:37:24.247Z,1.50
2023-03-28T04:37:56.250Z,1.50
2023-03-28T04:38:28.334Z,1.50
2023-03-28T04:39:00.468Z,1.50
2023-03-28T04:39:32.148Z,1.50
2023-03-28T04:40:04.198Z,1.50
2023-03-28T04:40:36.218Z,1.50
2023-03-28T04:41:08.285Z,1.50
2023-03-28T04:41:40.216Z,1.50
2023-03-28T04:42:12.074Z,1.50
2023-03-28T04:42:44.139Z,1.50
2023-03-28T04:43:16.143Z,1.50
2023-03-28T04:43:48.025Z,1.50
2023-03-28T04:44:20.015Z,1.50
2023-03-28T04:44:52.033Z,1.50
2023-03-28T04:45:24.287Z,1.50
2023-03-28T04:45:55.935Z,1.50
2023-03-28T04:46:28.244Z,1.50
2023-03-28T04:47:00.009Z,1.50
2023-03-28T04:47:32.112Z,1.50
2023-03-28T04:48:03.932Z,1.50
2023-03-28T04:48:35.891Z,1.50
2023-03-28T04:49:07.876Z,1.50
2023-03-28T04:49:39.942Z,1.50
2023-03-28T04:50:11.692Z,1.50
2023-03-28T04:50:43.742Z,1.50
2023-03-28T04:51:15.751Z,1.50
2023-03-28T04:51:47.839Z,1.50
2023-03-28T04:52:19.679Z,1.50
2023-03-28T04:52:51.633Z,1.50
2023-03-28T04:53:23.703Z,1.50
2023-03-28T04:53:55.720Z,1.50
2023-03-28T04:54:27.572Z,1.38
2023-03-28T04:54:59.703Z,1.38
2023-03-28T04:55:31.696Z,1.38
2023-03-28T04:56:03.684Z,1.38
2023-03-28T04:56:35.786Z,1.38
2023-03-28T04:57:07.581Z,1.38
2023-03-28T04:57:39.687Z,1.38
2023-03-28T04:58:11.515Z,1.38
2023-03-28T04:58:43.692Z,1.38
2023-03-28T04:59:15.405Z,1.38
2023-03-28T04:59:47.478Z,1.38
2023-03-28T05:00:19.740Z,1.38
2023-03-28T05:00:51.407Z,1.38
2023-03-28T05:01:23.332Z,1.27
2023-03-28T05:01:55.463Z,1.27
2023-03-28T05:02:27.457Z,1.27
2023-03-28T05:02:59.286Z,1.27
2023-03-28T05:03:31.339Z,1.27
2023-03-28T05:04:03.271Z,1.27
2023-03-28T05:04:35.302Z,1.27
2023-03-28T05:05:07.122Z,1.27
2023-03-28T05:05:39.133Z,1.27
2023-03-28T05:06:11.489Z,1.27
2023-03-28T05:06:43.481Z,1.27
2023-03-28T05:07:15.105Z,1.22
2023-03-28T05:07:47.050Z,1.22
2023-03-28T05:08:19.106Z,1.22
2023-03-28T05:08:51.311Z,1.22
2023-03-28T05:09:22.963Z,1.22
2023-03-28T05:09:54.944Z,1.22
2023-03-28T05:10:27.031Z,1.22
2023-03-28T05:10:59.232Z,1.22
2023-03-28T05:11:31.152Z,1.22
2023-03-28T05:12:02.890Z,1.22
2023-03-28T05:12:34.879Z,1.22
2023-03-28T05:13:06.916Z,1.22
2023-03-28T05:13:38.759Z,1.22
2023-03-28T05:14:10.947Z,1.22
2023-03-28T05:14:42.833Z,1.22
2023-03-28T05:15:21.967Z,1.22
2023-03-28T05:15:46.735Z,1.11
2023-03-28T05:16:18.717Z,1.11
2023-03-28T05:16:50.958Z,1.11
2023-03-28T05:17:22.798Z,1.11
2023-03-28T05:17:54.613Z,1.11
2023-03-28T05:18:26.636Z,1.11
2023-03-28T05:18:58.992Z,1.11
2023-03-28T05:19:31.325Z,1.11
2023-03-28T05:20:02.517Z,1.11
2023-03-28T05:20:34.494Z,1.11
2023-03-28T05:21:06.530Z,1.11
2023-03-28T05:21:38.539Z,1.11
2023-03-28T05:22:10.636Z,1.11
2023-03-28T05:22:42.398Z,1.11
2023-03-28T05:23:14.465Z,1.11
2023-03-28T05:23:51.614Z,1.11
2023-03-28T05:24:18.304Z,1.11
2023-03-28T05:24:50.370Z,1.11
2023-03-28T05:25:22.340Z,1.11
2023-03-28T05:25:54.580Z,1.11
2023-03-28T05:26:26.268Z,1.11
2023-03-28T05:26:58.251Z,1.11
2023-03-28T05:27:30.286Z,1.11
2023-03-28T05:28:02.408Z,1.11
2023-03-28T05:28:34.344Z,1.11
2023-03-28T05:29:06.133Z,1.11
2023-03-28T05:29:38.571Z,1.11
2023-03-28T05:30:10.432Z,1.11
2023-03-28T05:30:42.249Z,1.11
2023-03-28T05:31:14.042Z,1.11
2023-03-28T05:31:46.219Z,1.11
2023-03-28T05:32:18.090Z,1.11
2023-03-28T05:32:50.173Z,1.22
2023-03-28T05:33:21.927Z,1.22
2023-03-28T05:33:53.988Z,1.22
2023-03-28T05:34:26.085Z,1.22
2023-03-28T05:34:58.098Z,1.22
2023-03-28T05:35:29.954Z,1.22
2023-03-28T05:36:01.901Z,1.27
2023-03-28T05:36:34.028Z,1.27
2023-03-28T05:37:05.949Z,1.27
2023-03-28T05:37:39.159Z,1.27
2023-03-28T05:38:09.793Z,1.27
2023-03-28T05:38:41.789Z,1.27
2023-03-28T05:39:13.864Z,1.27
2023-03-28T05:39:45.817Z,1.27
2023-03-28T05:40:17.794Z,1.27
2023-03-28T05:40:49.751Z,1.27
2023-03-28T05:41:21.805Z,1.38
2023-03-28T05:41:53.602Z,1.38
2023-03-28T05:42:25.658Z,1.38
2023-03-28T05:42:57.662Z,1.38
2023-03-28T05:43:29.743Z,1.38
2023-03-28T05:44:01.498Z,1.38
2023-03-28T05:44:33.952Z,1.38
2023-03-28T05:45:05.795Z,1.38
2023-03-28T05:45:37.741Z,1.38
2023-03-28T05:46:09.439Z,1.38
2023-03-28T05:46:41.472Z,1.38
2023-03-28T05:47:13.425Z,1.38
2023-03-28T05:47:45.510Z,1.50
2023-03-28T05:48:17.280Z,1.50
2023-03-28T05:48:50.040Z,1.50
2023-03-28T05:49:21.579Z,1.50
2023-03-28T05:49:55.010Z,1.50
2023-03-28T05:50:25.261Z,1.50
2023-03-28T05:50:57.985Z,1.50
2023-03-28T05:51:29.248Z,1.50
2023-03-28T05:52:01.401Z,1.50
2023-03-28T05:52:33.115Z,1.50
2023-03-28T05:53:05.142Z,1.61
2023-03-28T05:53:37.182Z,1.61
2023-03-28T05:54:09.255Z,1.61
2023-03-28T05:54:41.182Z,1.61
2023-03-28T05:55:13.077Z,1.61
2023-03-28T05:55:45.106Z,1.61
2023-03-28T05:56:17.088Z,1.61
2023-03-28T05:56:48.934Z,1.61
2023-03-28T05:57:21.214Z,1.61
2023-03-28T05:57:52.975Z,1.72
2023-03-28T05:58:25.031Z,1.72
2023-03-28T05:58:57.080Z,1.72
2023-03-28T05:59:28.875Z,1.72
2023-03-28T06:00:01.384Z,1.72
2023-03-28T06:00:32.983Z,1.72
2023-03-28T06:01:05.016Z,1.72
2023-03-28T06:01:36.773Z,1.72
2023-03-28T06:02:08.800Z,1.72
2023-03-28T06:02:40.997Z,1.72
2023-03-28T06:03:16.364Z,1.72
2023-03-28T06:03:44.720Z,1.72
2023-03-28T06:04:16.789Z,1.72
2023-03-28T06:04:48.825Z,1.72
2023-03-28T06:05:20.885Z,1.72
2023-03-28T06:05:52.598Z,1.72
2023-03-28T06:06:24.623Z,1.72
2023-03-28T06:06:56.674Z,1.72
2023-03-28T06:07:41.358Z,1.72
2023-03-28T06:08:00.586Z,1.77
2023-03-28T06:08:32.487Z,1.77
2023-03-28T06:09:04.534Z,1.77
2023-03-28T06:09:36.579Z,1.77
2023-03-28T06:10:08.424Z,1.77
2023-03-28T06:10:40.537Z,1.77
2023-03-28T06:11:12.436Z,1.77
2023-03-28T06:11:44.503Z,1.77
2023-03-28T06:12:16.305Z,1.77
2023-03-28T06:12:48.307Z,1.77
2023-03-28T06:13:20.441Z,1.77
2023-03-28T06:13:52.408Z,1.77
2023-03-28T06:14:24.780Z,1.77
2023-03-28T06:14:56.356Z,1.77
2023-03-28T06:15:28.385Z,1.77
2023-03-28T06:16:00.296Z,1.77
2023-03-28T06:16:32.150Z,1.77
2023-03-28T06:17:04.183Z,1.77
2023-03-28T06:17:36.219Z,1.77
2023-03-28T06:18:08.323Z,1.77
2023-03-28T06:18:39.996Z,1.88
2023-03-28T06:19:18.280Z,1.88
2023-03-28T06:19:44.149Z,1.77
2023-03-28T06:20:16.177Z,1.77
2023-03-28T06:20:47.986Z,1.77
2023-03-28T06:21:19.935Z,1.88
2023-03-28T06:21:51.992Z,1.88
2023-03-28T06:22:24.154Z,1.88
2023-03-28T06:22:55.856Z,1.88
2023-03-28T06:23:27.976Z,1.88
2023-03-28T06:23:59.858Z,1.88
2023-03-28T06:24:31.925Z,1.88
2023-03-28T06:25:03.829Z,1.88
2023-03-28T06:25:35.766Z,1.88
2023-03-28T06:26:07.864Z,1.88
2023-03-28T06:26:39.846Z,1.88
2023-03-28T06:27:11.851Z,1.88
2023-03-28T06:27:44.169Z,1.88
2023-03-28T06:28:16.188Z,1.88
2023-03-28T06:28:47.873Z,1.88
2023-03-28T06:29:19.891Z,1.88
2023-03-28T06:29:51.750Z,1.88
2023-03-28T06:30:23.754Z,2.00
2023-03-28T06:30:55.731Z,2.00
2023-03-28T06:31:27.772Z,2.00
2023-03-28T06:31:59.506Z,2.00
2023-03-28T06:32:31.549Z,2.00
2023-03-28T06:33:03.596Z,2.00
2023-03-28T06:33:35.561Z,2.00
2023-03-28T06:34:07.420Z,2.00
2023-03-28T06:34:39.467Z,2.00
2023-03-28T06:35:11.489Z,2.00
2023-03-28T06:35:43.510Z,2.00
2023-03-28T06:36:15.317Z,2.00
2023-03-28T06:36:47.333Z,2.00
2023-03-28T06:37:19.339Z,2.00
2023-03-28T06:37:51.411Z,2.00
2023-03-28T06:38:23.292Z,2.00
2023-03-28T06:38:55.281Z,2.00
2023-03-28T06:39:27.254Z,2.00
2023-03-28T06:39:59.283Z,2.00
2023-03-28T06:40:31.279Z,2.00
2023-03-28T06:41:03.245Z,2.00
2023-03-28T06:41:35.179Z,2.00
2023-03-28T06:42:07.255Z,2.00
2023-03-28T06:42:39.072Z,2.00
2023-03-28T06:43:11.344Z,2.00
2023-03-28T06:43:43.079Z,2.00
2023-03-28T06:44:15.108Z,2.00
2023-03-28T06:44:46.952Z,2.00
2023-03-28T06:45:19.150Z,2.00
2023-03-28T06:45:51.257Z,1.88
2023-03-28T06:46:23.154Z,1.88
2023-03-28T06:46:54.865Z,1.88
2023-03-28T06:47:26.875Z,1.88
2023-03-28T06:47:59.020Z,1.88
2023-03-28T06:48:31.560Z,1.88
2023-03-28T06:49:02.764Z,1.88
2023-03-28T06:49:35.311Z,1.88
2023-03-28T06:50:06.860Z,1.88
2023-03-28T06:50:38.840Z,1.88
2023-03-28T06:51:10.946Z,1.88
2023-03-28T06:51:42.887Z,1.88
2023-03-28T06:52:14.733Z,2.00
2023-03-28T06:52:46.767Z,2.00
2023-03-28T06:53:19.070Z,2.00
2023-03-28T06:53:50.725Z,2.00
2023-03-28T06:54:22.737Z,2.00
2023-03-28T06:54:54.675Z,2.00
2023-03-28T06:55:26.607Z,2.00
2023-03-28T06:55:58.536Z,2.11
2023-03-28T06:56:30.818Z,2.11
2023-03-28T06:57:02.705Z,2.11
2023-03-28T06:57:34.527Z,2.11
2023-03-28T06:58:06.562Z,2.11
2023-03-28T06:58:38.428Z,2.11
2023-03-28T06:59:10.603Z,2.22
2023-03-28T06:59:42.360Z,2.22
2023-03-28T07:00:14.884Z,2.22
2023-03-28T07:00:46.414Z,2.22
2023-03-28T07:01:18.433Z,2.22
2023-03-28T07:01:50.405Z,2.22
2023-03-28T07:02:22.470Z,2.22
2023-03-28T07:02:54.433Z,2.22
2023-03-28T07:03:26.389Z,2.22
2023-03-28T07:03:58.316Z,2.22
2023-03-28T07:04:30.198Z,2.27
2023-03-28T07:05:02.253Z,2.27
2023-03-28T07:05:34.257Z,2.27